createdAt,value
2019-04-11T00:01:54.735Z,3.67
2019-04-11T00:04:21.972Z,3.83
2019-04-11T00:06:48.244Z,3.67
2019-04-11T00:09:16.695Z,3.53
2019-04-11T00:11:44.118Z,3.57
2019-04-11T00:14:11.852Z,3.80
2019-04-11T00:16:37.986Z,4.03
2019-04-11T00:19:05.228Z,3.83
2019-04-11T00:21:32.961Z,4.20
2019-04-11T00:23:59.168Z,3.60
2019-04-11T00:26:26.412Z,3.77
2019-04-11T00:28:52.752Z,4.00
2019-04-11T00:31:18.996Z,3.57
2019-04-11T00:33:45.149Z,3.87
2019-04-11T00:36:12.346Z,4.00
2019-04-11T00:38:38.732Z,4.07
2019-04-11T00:41:05.831Z,4.10
2019-04-11T00:43:37.647Z,3.90
2019-04-11T00:46:01.528Z,4.00
2019-04-11T00:48:28.306Z,4.33
2019-04-11T00:50:54.482Z,4.27
2019-04-11T00:53:20.632Z,4.30
2019-04-11T00:55:48.024Z,4.30
2019-04-11T00:58:14.388Z,4.50
2019-04-11T01:00:40.543Z,4.30
2019-04-11T01:03:06.707Z,4.27
2019-04-11T01:05:33.819Z,4.33
2019-04-11T01:08:00.456Z,3.80
2019-04-11T01:10:26.719Z,4.00
2019-04-11T01:12:53.194Z,4.53
2019-04-11T01:15:21.626Z,4.03
2019-04-11T01:17:47.816Z,4.10
2019-04-11T01:20:15.310Z,4.00
2019-04-11T01:22:42.426Z,4.40
2019-04-11T01:25:09.021Z,4.33
2019-04-11T01:27:36.179Z,4.10
2019-04-11T01:30:06.194Z,6.83
2019-04-11T01:32:32.592Z,5.60
2019-04-11T01:34:59.203Z,4.53
2019-04-11T01:37:26.001Z,4.07
2019-04-11T01:39:59.910Z,4.70
2019-04-11T01:42:27.050Z,4.10
2019-04-11T01:44:53.265Z,4.00
2019-04-11T01:47:22.535Z,4.53
2019-04-11T01:49:48.707Z,4.07
2019-04-11T01:52:15.062Z,4.17
2019-04-11T01:54:41.322Z,4.47
2019-04-11T01:57:07.601Z,4.20
2019-04-11T01:59:33.732Z,3.83
2019-04-11T02:02:05.387Z,4.27
2019-04-11T02:04:40.419Z,4.10
2019-04-11T02:07:06.971Z,4.30
2019-04-11T02:09:33.104Z,3.47
2019-04-11T02:11:59.266Z,4.60
2019-04-11T02:14:25.795Z,4.50
2019-04-11T02:16:53.360Z,4.03
2019-04-11T02:19:20.391Z,4.20
2019-04-11T02:21:47.714Z,4.47
2019-04-11T02:24:15.785Z,4.37
2019-04-11T02:26:46.536Z,3.73
2019-04-11T02:29:13.013Z,3.90
2019-04-11T02:31:39.240Z,4.07
2019-04-11T02:34:06.425Z,4.33
2019-04-11T02:36:34.286Z,3.83
2019-04-11T02:39:09.921Z,3.90
2019-04-11T02:41:35.281Z,4.00
2019-04-11T02:44:11.618Z,3.97
2019-04-11T02:46:42.673Z,4.20
2019-04-11T02:49:03.082Z,4.37
2019-04-11T02:51:31.129Z,4.37
2019-04-11T02:53:58.952Z,4.43
2019-04-11T02:56:27.653Z,4.60
2019-04-11T02:58:54.712Z,4.73
2019-04-11T03:01:22.006Z,4.53
2019-04-11T03:03:49.853Z,4.50
2019-04-11T03:06:17.580Z,4.60
2019-04-11T03:08:46.475Z,4.13
2019-04-11T03:11:14.204Z,4.10
2019-04-11T03:13:42.211Z,4.70
2019-04-11T03:16:24.824Z,4.63
2019-04-11T03:18:54.931Z,4.80
2019-04-11T03:21:11.134Z,4.43
2019-04-11T03:23:35.407Z,4.37
2019-04-11T03:26:03.200Z,4.93
2019-04-11T03:28:31.313Z,4.60
2019-04-11T03:31:27.500Z,4.70
2019-04-11T03:34:13.093Z,4.63
2019-04-11T03:38:44.203Z,4.63
2019-04-11T03:41:10.342Z,4.90
2019-04-11T03:43:29.893Z,4.63
2019-04-11T03:46:10.527Z,4.80
2019-04-11T03:48:33.827Z,5.23
2019-04-11T03:50:46.866Z,4.90
2019-04-11T03:53:14.710Z,5.03
2019-04-11T03:55:41.117Z,4.80
2019-04-11T03:58:08.501Z,4.80
2019-04-11T04:00:38.365Z,5.13
2019-04-11T04:03:05.977Z,4.87
2019-04-11T04:05:36.241Z,5.27
2019-04-11T04:08:03.494Z,4.90
2019-04-11T04:10:31.803Z,5.33
2019-04-11T04:13:00.209Z,4.97
2019-04-11T04:15:44.238Z,4.43
2019-04-11T04:18:05.827Z,5.07
2019-04-11T04:20:39.416Z,5.50
2019-04-11T04:23:09.568Z,5.37
2019-04-11T04:25:36.891Z,4.83
2019-04-11T04:28:05.272Z,5.27
2019-04-11T04:30:33.538Z,5.47
2019-04-11T04:33:00.649Z,5.60
2019-04-11T04:35:28.408Z,4.73
2019-04-11T04:37:56.787Z,5.37
2019-04-11T04:40:42.473Z,5.37
2019-04-11T04:42:55.462Z,5.17
2019-04-11T04:45:21.485Z,6.00
2019-04-11T04:47:54.861Z,5.43
2019-04-11T04:50:15.852Z,4.67
2019-04-11T04:52:42.853Z,5.53
2019-04-11T04:55:10.613Z,5.40
2019-04-11T04:57:37.617Z,5.43
2019-04-11T05:00:07.142Z,5.37
2019-04-11T05:02:35.432Z,5.87
2019-04-11T05:05:04.268Z,5.50
2019-04-11T05:07:37.439Z,5.73
2019-04-11T05:10:00.937Z,6.13
2019-04-11T05:12:28.173Z,5.30
2019-04-11T05:14:55.969Z,5.87
2019-04-11T05:17:23.136Z,5.23
2019-04-11T05:19:49.557Z,6.03
2019-04-11T05:22:16.774Z,6.33
2019-04-11T05:24:43.363Z,6.03
2019-04-11T05:27:10.420Z,5.93
2019-04-11T05:29:37.629Z,5.33
2019-04-11T05:32:05.091Z,5.90
2019-04-11T05:34:31.331Z,5.80
2019-04-11T05:36:57.644Z,5.67
2019-04-11T05:39:23.852Z,5.43
2019-04-11T05:41:51.320Z,5.13
2019-04-11T05:44:18.759Z,5.27
2019-04-11T05:46:53.254Z,5.37
2019-04-11T05:49:36.150Z,5.67
2019-04-11T05:52:03.969Z,5.60
2019-04-11T05:54:33.216Z,5.47
2019-04-11T05:57:01.350Z,4.93
2019-04-11T05:59:28.346Z,5.10
2019-04-11T06:02:04.348Z,5.40
2019-04-11T06:04:51.927Z,5.53
2019-04-11T06:07:35.004Z,5.50
2019-04-11T06:10:08.473Z,5.77
2019-04-11T06:12:50.603Z,5.50
2019-04-11T06:15:20.345Z,5.33
2019-04-11T06:17:48.638Z,5.30
2019-04-11T06:20:19.938Z,4.93
2019-04-11T06:22:48.219Z,5.03
2019-04-11T06:25:19.440Z,5.30
2019-04-11T06:27:47.626Z,4.93
2019-04-11T06:30:18.597Z,5.50
2019-04-11T06:33:04.538Z,4.80
2019-04-11T06:35:35.857Z,4.40
2019-04-11T06:38:10.126Z,4.87
2019-04-11T06:40:51.125Z,4.50
2019-04-11T06:43:27.750Z,4.20
2019-04-11T06:45:56.536Z,3.97
2019-04-11T06:48:27.466Z,4.10
2019-04-11T06:50:59.670Z,3.73
2019-04-11T06:53:28.108Z,4.07
2019-04-11T06:56:12.729Z,3.83
2019-04-11T06:58:40.809Z,3.73
2019-04-11T07:01:09.805Z,3.40
2019-04-11T07:03:41.202Z,3.87
2019-04-11T07:06:09.253Z,4.33
2019-04-11T07:08:43.021Z,3.73
2019-04-11T07:11:23.597Z,3.73
2019-04-11T07:13:51.759Z,3.60
2019-04-11T07:16:18.614Z,3.80
2019-04-11T07:18:48.420Z,3.70
2019-04-11T07:21:14.999Z,4.13
2019-04-11T07:23:59.826Z,3.67
2019-04-11T07:26:35.041Z,3.77
2019-04-11T07:29:13.061Z,3.87
2019-04-11T07:31:44.321Z,3.67
2019-04-11T07:34:33.118Z,3.63
2019-04-11T07:37:06.704Z,3.63
2019-04-11T07:39:44.505Z,4.20
2019-04-11T07:42:27.946Z,3.77
2019-04-11T07:45:14.169Z,3.37
2019-04-11T07:48:00.774Z,4.10
2019-04-11T07:50:27.682Z,3.67
2019-04-11T07:53:03.065Z,3.80
2019-04-11T07:55:30.042Z,3.70
2019-04-11T07:58:21.636Z,3.63
2019-04-11T08:01:03.615Z,3.80
2019-04-11T08:03:41.214Z,3.27
2019-04-11T08:06:09.257Z,3.07
2019-04-11T08:08:47.124Z,3.10
2019-04-11T08:11:21.041Z,3.20
2019-04-11T08:14:08.336Z,2.80
2019-04-11T08:16:53.354Z,2.90
2019-04-11T08:19:33.382Z,3.30
2019-04-11T08:22:01.557Z,2.87
2019-04-11T08:24:36.598Z,2.67
2019-04-11T08:27:07.642Z,2.80
2019-04-11T08:29:34.053Z,3.10
2019-04-11T08:32:19.916Z,3.17
2019-04-11T08:34:59.951Z,2.83
2019-04-11T08:37:40.058Z,2.83
2019-04-11T08:40:09.398Z,2.67
2019-04-11T08:42:38.990Z,2.40
2019-04-11T08:45:08.170Z,2.23
2019-04-11T08:47:44.740Z,2.53
2019-04-11T08:50:06.108Z,2.20
2019-04-11T08:52:34.267Z,2.40
2019-04-11T08:55:02.393Z,2.23
2019-04-11T08:57:36.250Z,2.10
2019-04-11T09:00:26.291Z,2.17
2019-04-11T09:03:01.682Z,2.13
2019-04-11T09:05:39.070Z,2.20
2019-04-11T09:08:16.412Z,1.93
2019-04-11T09:10:50.811Z,2.00
2019-04-11T09:13:35.830Z,2.00
2019-04-11T09:16:21.583Z,2.50
2019-04-11T09:18:48.137Z,2.17
2019-04-11T09:21:34.102Z,2.20
2019-04-11T09:24:02.328Z,2.20
2019-04-11T09:26:47.855Z,2.07
2019-04-11T09:29:15.575Z,2.00
2019-04-11T09:31:49.134Z,2.20
2019-04-11T09:34:35.673Z,2.33
2019-04-11T09:37:04.881Z,2.30
2019-04-11T09:39:43.423Z,2.30
2019-04-11T09:42:20.139Z,2.60
2019-04-11T09:44:48.930Z,2.37
2019-04-11T09:47:17.324Z,2.97
2019-04-11T09:49:45.369Z,2.73
2019-04-11T09:52:22.753Z,3.10
2019-04-11T09:54:50.827Z,3.00
2019-04-11T09:57:18.927Z,2.47
2019-04-11T09:59:56.035Z,2.10
2019-04-11T10:02:25.352Z,2.47
2019-04-11T10:04:52.820Z,2.70
2019-04-11T10:07:28.133Z,2.13
2019-04-11T10:10:02.549Z,2.50
2019-04-11T10:12:40.485Z,2.67
2019-04-11T10:15:09.197Z,2.07
2019-04-11T10:17:38.106Z,2.30
2019-04-11T10:20:04.842Z,2.57
2019-04-11T10:22:36.172Z,2.30
2019-04-11T10:25:19.133Z,2.40
2019-04-11T10:27:51.035Z,2.57
2019-04-11T10:30:37.709Z,2.40
2019-04-11T10:33:14.973Z,2.80
2019-04-11T10:36:01.207Z,2.80
2019-04-11T10:38:28.653Z,2.43
2019-04-11T10:41:00.856Z,2.10
2019-04-11T10:43:27.097Z,2.60
2019-04-11T10:46:11.280Z,2.83
2019-04-11T10:48:49.142Z,2.40
2019-04-11T10:51:18.374Z,2.77
2019-04-11T10:53:44.541Z,2.57
2019-04-11T10:56:15.972Z,2.70
2019-04-11T10:58:44.781Z,2.37
2019-04-11T11:01:15.753Z,2.50
2019-04-11T11:03:49.776Z,2.50
2019-04-11T11:06:27.480Z,2.70
2019-04-11T11:09:12.811Z,2.37
2019-04-11T11:11:44.208Z,2.83
2019-04-11T11:14:29.306Z,3.07
2019-04-11T11:17:15.572Z,2.90
2019-04-11T11:20:11.918Z,2.80
2019-04-11T11:22:44.742Z,2.90
2019-04-11T11:25:16.974Z,3.00
2019-04-11T11:27:45.778Z,2.77
2019-04-11T11:30:27.367Z,2.90
2019-04-11T11:32:53.936Z,2.77
2019-04-11T11:35:34.280Z,2.37
2019-04-11T11:38:01.939Z,2.40
2019-04-11T11:40:56.207Z,2.83
2019-04-11T11:43:25.265Z,2.70
2019-04-11T11:46:10.632Z,2.53
2019-04-11T11:48:39.661Z,2.40
2019-04-11T11:51:13.741Z,2.83
2019-04-11T11:53:48.871Z,2.67
2019-04-11T11:56:15.915Z,2.87
2019-04-11T11:58:45.317Z,2.60
2019-04-11T12:01:14.097Z,2.60
2019-04-11T12:03:48.789Z,2.57
2019-04-11T12:06:19.746Z,2.37
2019-04-11T12:09:02.498Z,2.23
2019-04-11T12:11:28.770Z,2.50
2019-04-11T12:14:13.754Z,2.70
2019-04-11T12:16:45.006Z,2.33
2019-04-11T12:19:16.039Z,2.57
2019-04-11T12:21:41.100Z,1.97
2019-04-11T12:24:18.117Z,2.40
2019-04-11T12:26:52.445Z,2.30
2019-04-11T12:29:27.900Z,2.37
2019-04-11T12:31:56.343Z,2.53
2019-04-11T12:34:24.386Z,2.27
2019-04-11T12:36:53.031Z,2.43
2019-04-11T12:39:37.892Z,2.43
2019-04-11T12:42:08.729Z,2.20
2019-04-11T12:44:36.769Z,2.70
2019-04-11T12:47:19.895Z,2.43
2019-04-11T12:49:53.116Z,2.57
2019-04-11T12:52:36.135Z,2.70
2019-04-11T12:55:09.454Z,2.17
2019-04-11T12:57:54.387Z,2.17
2019-04-11T13:00:37.815Z,2.80
2019-04-11T13:03:08.874Z,2.57
2019-04-11T13:05:39.897Z,2.23
2019-04-11T13:08:24.841Z,2.43
2019-04-11T13:10:50.974Z,2.73
2019-04-11T13:13:19.051Z,2.57
2019-04-11T13:15:47.895Z,2.10
2019-04-11T13:18:18.875Z,1.93
2019-04-11T13:20:46.908Z,2.50
2019-04-11T13:23:27.338Z,2.40
2019-04-11T13:25:55.413Z,2.57
2019-04-11T13:28:21.891Z,2.53
2019-04-11T13:31:06.694Z,2.53
2019-04-11T13:33:32.860Z,2.23
2019-04-11T13:36:06.869Z,2.67
2019-04-11T13:38:34.951Z,2.27
2019-04-11T13:41:02.995Z,2.10
2019-04-11T13:43:33.965Z,2.10
2019-04-11T13:46:04.920Z,2.53
2019-04-11T13:48:48.038Z,2.30
2019-04-11T13:51:19.334Z,2.30
2019-04-11T13:54:04.317Z,2.80
2019-04-11T13:56:35.368Z,2.20
2019-04-11T13:59:03.424Z,2.10
2019-04-11T14:01:32.342Z,2.17
2019-04-11T14:04:03.202Z,1.80
2019-04-11T14:06:29.412Z,2.20
2019-04-11T14:08:59.299Z,2.00
2019-04-11T14:11:27.532Z,2.20
2019-04-11T14:13:54.347Z,1.97
2019-04-11T14:16:24.641Z,2.17
2019-04-11T14:19:07.041Z,2.03
2019-04-11T14:21:32.695Z,2.00
2019-04-11T14:24:00.964Z,1.90
2019-04-11T14:26:29.324Z,2.13
2019-04-11T14:28:56.292Z,1.80
2019-04-11T14:31:40.918Z,1.83
2019-04-11T14:34:25.971Z,2.33
2019-04-11T14:37:08.857Z,2.07
2019-04-11T14:39:42.973Z,2.00
2019-04-11T14:42:17.007Z,1.93
2019-04-11T14:44:44.103Z,2.07
2019-04-11T14:47:27.145Z,1.80
2019-04-11T14:49:57.900Z,1.87
2019-04-11T14:52:41.237Z,1.80
2019-04-11T14:55:08.721Z,1.87
2019-04-11T14:57:39.886Z,1.87
2019-04-11T15:00:13.689Z,1.57
2019-04-11T15:02:56.689Z,1.77
2019-04-11T15:05:33.481Z,1.70
2019-04-11T15:07:59.708Z,1.60
2019-04-11T15:10:33.703Z,1.80
2019-04-11T15:12:59.870Z,1.83
2019-04-11T15:15:30.839Z,1.60
2019-04-11T15:17:58.885Z,1.90
2019-04-11T15:20:33.866Z,1.53
2019-04-11T15:23:06.702Z,1.60
2019-04-11T15:25:32.971Z,1.50
2019-04-11T15:28:01.086Z,2.20
2019-04-11T15:30:29.174Z,1.90
2019-04-11T15:32:57.247Z,1.57
2019-04-11T15:35:23.397Z,1.77
2019-04-11T15:38:09.010Z,1.47
2019-04-11T15:40:35.464Z,1.43
2019-04-11T15:43:06.402Z,1.70
2019-04-11T15:45:35.070Z,1.60
2019-04-11T15:48:03.137Z,1.77
2019-04-11T15:50:47.744Z,1.50
2019-04-11T15:53:15.786Z,1.50
2019-04-11T15:56:02.067Z,1.50
2019-04-11T15:58:30.127Z,1.30
2019-04-11T16:01:07.023Z,1.60
2019-04-11T16:03:33.221Z,1.30
2019-04-11T16:06:04.106Z,1.33
2019-04-11T16:08:31.996Z,1.50
2019-04-11T16:11:12.168Z,1.43
2019-04-11T16:13:38.883Z,1.33
2019-04-11T16:16:11.652Z,1.53
2019-04-11T16:18:39.259Z,1.17
2019-04-11T16:21:18.119Z,1.37
2019-04-11T16:23:39.958Z,1.40
2019-04-11T16:26:08.323Z,1.17
2019-04-11T16:28:48.297Z,1.40
2019-04-11T16:31:14.461Z,1.30
2019-04-11T16:33:45.736Z,1.23
2019-04-11T16:36:12.827Z,1.47
2019-04-11T16:38:43.794Z,1.40
2019-04-11T16:41:28.948Z,1.30
2019-04-11T16:44:09.092Z,1.20
2019-04-11T16:46:40.135Z,1.30
2019-04-11T16:49:06.333Z,1.30
2019-04-11T16:51:32.486Z,1.60
2019-04-11T16:53:58.643Z,1.60
2019-04-11T16:56:24.803Z,1.20
2019-04-11T16:58:50.999Z,1.37
2019-04-11T17:01:17.102Z,1.07
2019-04-11T17:03:44.101Z,1.17
2019-04-11T17:06:12.228Z,1.50
2019-04-11T17:08:51.538Z,1.30
2019-04-11T17:11:19.039Z,1.03
2019-04-11T17:13:45.375Z,1.07
2019-04-11T17:16:12.622Z,1.40
2019-04-11T17:18:39.084Z,1.30
2019-04-11T17:21:07.863Z,1.20
2019-04-11T17:23:33.296Z,1.00
2019-04-11T17:25:59.433Z,1.30
2019-04-11T17:28:25.596Z,1.40
2019-04-11T17:30:54.927Z,1.30
2019-04-11T17:33:19.829Z,1.27
2019-04-11T17:35:45.989Z,1.30
2019-04-11T17:38:12.170Z,1.20
2019-04-11T17:40:39.555Z,1.07
2019-04-11T17:43:06.353Z,1.40
2019-04-11T17:45:32.781Z,1.30
2019-04-11T17:47:58.985Z,1.20
2019-04-11T17:50:25.153Z,1.20
2019-04-11T17:52:54.507Z,1.30
2019-04-11T17:55:19.372Z,1.40
2019-04-11T17:57:45.551Z,1.40
2019-04-11T18:00:21.365Z,1.50
2019-04-11T18:02:47.787Z,1.33
2019-04-11T18:05:16.672Z,1.27
2019-04-11T18:07:42.091Z,1.70
2019-04-11T18:10:08.454Z,1.37
2019-04-11T18:12:34.603Z,1.33
2019-04-11T18:15:02.299Z,1.40
2019-04-11T18:17:28.918Z,1.30
2019-04-11T18:19:55.075Z,1.50
2019-04-11T18:22:21.222Z,1.20
2019-04-11T18:24:49.841Z,1.60
2019-04-11T18:27:15.882Z,1.40
2019-04-11T18:29:42.047Z,1.70
2019-04-11T18:32:08.202Z,1.63
2019-04-11T18:34:34.414Z,1.60
2019-04-11T18:37:02.217Z,2.20
2019-04-11T18:39:28.648Z,1.90
2019-04-11T18:41:57.548Z,2.30
2019-04-11T18:44:23.227Z,1.70
2019-04-11T18:46:49.403Z,1.40
2019-04-11T18:49:15.555Z,1.47
2019-04-11T18:51:41.685Z,1.20
2019-04-11T18:54:07.953Z,1.30
2019-04-11T18:56:34.194Z,1.40
2019-04-11T18:59:03.546Z,1.50
2019-04-11T19:01:28.858Z,1.20
2019-04-11T19:03:55.407Z,1.10
2019-04-11T19:06:27.636Z,1.30
2019-04-11T19:08:50.332Z,1.43
2019-04-11T19:11:16.960Z,1.40
2019-04-11T19:13:46.742Z,1.30
2019-04-11T19:16:13.774Z,1.27
2019-04-11T19:18:40.028Z,1.20
2019-04-11T19:21:06.688Z,1.30
2019-04-11T19:23:32.850Z,1.30
2019-04-11T19:25:59.105Z,1.17
2019-04-11T19:28:25.731Z,1.60
2019-04-11T19:30:53.989Z,1.17
2019-04-11T19:33:20.029Z,1.30
2019-04-11T19:35:46.502Z,1.30
2019-04-11T19:38:23.862Z,1.23
2019-04-11T19:40:50.447Z,1.20
2019-04-11T19:43:18.932Z,1.20
2019-04-11T19:45:45.277Z,1.40
2019-04-11T19:48:11.427Z,1.33
2019-04-11T19:50:37.673Z,1.23
2019-04-11T19:53:03.847Z,1.30
2019-04-11T19:55:47.235Z,1.00
2019-04-11T19:58:15.787Z,1.20
2019-04-11T20:00:42.261Z,1.30
2019-04-11T20:03:08.601Z,1.50
2019-04-11T20:05:35.264Z,1.70
2019-04-11T20:08:04.574Z,1.20
2019-04-11T20:10:31.360Z,1.10
2019-04-11T20:12:59.085Z,1.27
2019-04-11T20:15:36.692Z,1.30
2019-04-11T20:17:54.214Z,0.97
2019-04-11T20:20:20.374Z,1.57
2019-04-11T20:22:58.261Z,1.47
2019-04-11T20:25:16.285Z,1.10
2019-04-11T20:27:42.709Z,1.40
2019-04-11T20:30:09.273Z,1.10
2019-04-11T20:32:35.475Z,1.13
2019-04-11T20:35:01.614Z,1.30
2019-04-11T20:37:38.759Z,1.20
2019-04-11T20:39:55.912Z,1.30
2019-04-11T20:42:24.195Z,1.20
2019-04-11T20:44:50.425Z,1.30
2019-04-11T20:47:16.977Z,1.20
2019-04-11T20:49:48.920Z,1.30
2019-04-11T20:52:15.072Z,1.27
2019-04-11T20:54:41.211Z,1.30
2019-04-11T20:57:11.872Z,1.20
2019-04-11T20:59:41.236Z,1.20
2019-04-11T21:02:04.232Z,1.20
2019-04-11T21:04:31.306Z,1.20
2019-04-11T21:07:01.781Z,1.63
2019-04-11T21:09:26.273Z,1.10
2019-04-11T21:11:52.410Z,1.20
2019-04-11T21:14:18.676Z,1.23
2019-04-11T21:16:44.800Z,1.30
2019-04-11T21:19:11.287Z,1.30
2019-04-11T21:21:37.429Z,1.30
2019-04-11T21:24:03.653Z,1.40
2019-04-11T21:26:29.801Z,1.37
2019-04-11T21:28:58.768Z,1.40
2019-04-11T21:31:24.112Z,1.30
2019-04-11T21:33:50.305Z,1.30
2019-04-11T21:36:16.452Z,1.53
2019-04-11T21:38:42.650Z,1.40
2019-04-11T21:41:09.132Z,1.17
2019-04-11T21:43:36.183Z,1.60
2019-04-11T21:46:04.101Z,1.43
2019-04-11T21:48:31.054Z,1.20
2019-04-11T21:50:57.217Z,1.50
2019-04-11T21:53:23.490Z,1.50
2019-04-11T21:55:49.913Z,1.37
2019-04-11T21:58:19.265Z,1.30
2019-04-11T22:00:51.704Z,1.40
2019-04-11T22:03:18.670Z,1.40
2019-04-11T22:05:44.915Z,1.60
2019-04-11T22:08:11.113Z,1.23
2019-04-11T22:10:40.115Z,1.30
2019-04-11T22:13:05.379Z,1.40
2019-04-11T22:15:31.693Z,1.73
2019-04-11T22:17:57.825Z,1.73
2019-04-11T22:20:24.025Z,1.33
2019-04-11T22:22:50.168Z,1.50
2019-04-11T22:25:16.385Z,1.60
2019-04-11T22:27:42.545Z,1.77
2019-04-11T22:30:10.935Z,1.33
2019-04-11T22:32:37.075Z,1.70
2019-04-11T22:35:04.474Z,1.53
2019-04-11T22:37:30.688Z,1.50
2019-04-11T22:39:56.909Z,1.53
2019-04-11T22:42:23.046Z,1.73
2019-04-11T22:44:49.244Z,1.70
2019-04-11T22:47:15.386Z,1.47
2019-04-11T22:49:41.580Z,1.70
2019-04-11T22:52:07.708Z,1.27
2019-04-11T22:54:33.868Z,1.40
2019-04-11T22:57:00.061Z,1.57
2019-04-11T22:59:26.553Z,1.30
2019-04-11T23:01:54.560Z,1.30
2019-04-11T23:04:20.728Z,1.67
2019-04-11T23:06:47.797Z,1.57
2019-04-11T23:09:16.683Z,1.37
2019-04-11T23:11:44.549Z,1.30
2019-04-11T23:14:10.461Z,1.50
2019-04-11T23:16:36.656Z,1.33
2019-04-11T23:19:02.807Z,1.40
2019-04-11T23:21:28.994Z,1.50
2019-04-11T23:23:55.134Z,1.70
2019-04-11T23:26:21.369Z,1.37
2019-04-11T23:28:47.515Z,1.30
2019-04-11T23:31:14.462Z,1.17
2019-04-11T23:33:40.601Z,1.20
2019-04-11T23:36:06.791Z,1.67
2019-04-11T23:38:32.961Z,1.40
2019-04-11T23:40:59.359Z,1.67
2019-04-11T23:43:25.512Z,1.30
2019-04-11T23:45:51.830Z,1.30
2019-04-11T23:48:18.361Z,2.20
2019-04-11T23:50:44.491Z,1.40
2019-04-11T23:53:10.683Z,1.50
2019-04-11T23:55:36.824Z,1.80
2019-04-11T23:58:03.011Z,1.57
